MET'MAP v2.0
soon released !

Expected late october,
this new version will be
more efficient, smarter,
and hosted on a brand new
server x3 powerfull...
...and still free !


Not compatible ?
Try the mobile version !

LOG IN : | Subscribe | Disclaimer | Who is Orbifly ? |
ICAO code :

TAF - DAOB Bou Chekif - Tiaret - 30 Mar 2020 20:50 UTC - Data Source NOAA   


- Airport Elevation : 3245 ft
- IATA code : TID
- No reported NOTAMs.


DAOB - Bou Chekif - Tiaret

Latest METAR recorded : 2015/08/11 08:00 DAOB 110800Z 22008KT 9999 SCT026 SCT216 27/16 Q1020
TAF TAF DAOB
Valid from the 30 at 18:00 until the 31 at 18:00 UTC


301700Z 3018/3118 08008KT 9999 FEW026 SCT090
PROB30
TEMPO 3018/3022 FEW026TCU
BECMG 3021/3101 17012KT
PROB40
TEMPO 3100/3106 17015G30KT 5000 -TSRA FEW026CB
BECMG 3109/3112 23014KT
PROB40
TEMPO 3113/3118 23015G25KT 5000 DRSA FEW026TCU

Source NOAA


MET'MAP, your aeronautical weather chart ! - Copyright ORBIFLY December 2007

Programming & Development : Alexandra Zaïnal
Co-Developer : Marc-Olivier Méhu
Technical & hardware support : Manuel Goepfert
Concept & Financing : Baudouin d'Aumeries